createdAt,value
2022-12-11T00:00:04.616Z,13.90
2022-12-11T00:02:31.336Z,15.63
2022-12-11T00:04:58.074Z,14.80
2022-12-11T00:07:24.783Z,15.50
2022-12-11T00:09:51.458Z,20.65
2022-12-11T00:12:18.109Z,15.43
2022-12-11T00:14:44.788Z,13.15
2022-12-11T00:17:11.525Z,12.27
2022-12-11T00:19:38.166Z,8.23
2022-12-11T00:22:04.803Z,21.70
2022-12-11T00:24:31.464Z,15.82
2022-12-11T00:26:58.436Z,15.27
2022-12-11T00:29:25.069Z,20.58
2022-12-11T00:31:51.752Z,24.00
2022-12-11T00:34:18.449Z,21.33
2022-12-11T00:36:45.136Z,17.17
2022-12-11T00:39:11.814Z,19.98
2022-12-11T00:41:38.606Z,14.15
2022-12-11T00:44:05.224Z,15.15
2022-12-11T00:46:31.888Z,13.18
2022-12-11T00:48:58.599Z,15.07
2022-12-11T00:51:26.037Z,13.93
2022-12-11T00:53:52.695Z,10.50
2022-12-11T00:56:19.340Z,13.85
2022-12-11T00:58:45.943Z,13.07
2022-12-11T01:01:12.639Z,15.15
2022-12-11T01:03:39.291Z,21.45
2022-12-11T01:06:06.012Z,15.25
2022-12-11T01:08:38.158Z,23.10
2022-12-11T01:11:05.245Z,15.60
2022-12-11T01:13:31.928Z,13.30
2022-12-11T01:15:58.555Z,16.17
2022-12-11T01:18:25.319Z,19.67
2022-12-11T01:20:51.963Z,13.18
2022-12-11T01:23:18.642Z,17.80
2022-12-11T01:25:45.303Z,20.58
2022-12-11T01:28:11.985Z,16.90
2022-12-11T01:30:38.770Z,20.98
2022-12-11T01:33:05.482Z,16.17
2022-12-11T01:35:32.622Z,14.15
2022-12-11T01:37:59.441Z,12.38
2022-12-11T01:40:26.060Z,15.48
2022-12-11T01:42:52.684Z,11.35
2022-12-11T01:45:19.278Z,16.45
2022-12-11T01:47:45.942Z,13.18
2022-12-11T01:50:12.581Z,15.23
2022-12-11T01:52:39.215Z,16.63
2022-12-11T01:55:05.864Z,14.95
2022-12-11T01:57:32.725Z,11.90
2022-12-11T01:59:59.380Z,11.75
2022-12-11T02:02:26.086Z,10.25
2022-12-11T02:04:52.733Z,11.68
2022-12-11T02:07:19.409Z,12.65
2022-12-11T02:09:46.081Z,14.13
2022-12-11T02:12:12.671Z,9.48
2022-12-11T02:14:39.832Z,9.68
2022-12-11T02:17:06.488Z,10.55
2022-12-11T02:19:33.092Z,12.23
2022-12-11T02:21:59.722Z,11.77
2022-12-11T02:24:26.438Z,9.30
2022-12-11T02:26:53.148Z,10.80
2022-12-11T02:29:19.773Z,10.90
2022-12-11T02:31:46.457Z,8.02
2022-12-11T02:34:13.152Z,12.63
2022-12-11T02:36:39.803Z,13.57
2022-12-11T02:39:06.410Z,15.98
2022-12-11T02:41:33.038Z,9.70
2022-12-11T02:43:59.718Z,9.65
2022-12-11T02:46:26.377Z,13.27
2022-12-11T02:48:53.024Z,9.75
2022-12-11T02:51:19.691Z,8.65
2022-12-11T02:53:46.352Z,9.90
2022-12-11T02:56:13.043Z,11.20
2022-12-11T02:58:39.880Z,13.65
2022-12-11T03:01:06.582Z,10.95
2022-12-11T03:03:33.256Z,12.38
2022-12-11T03:05:59.884Z,11.75
2022-12-11T03:08:26.552Z,13.00
2022-12-11T03:10:53.269Z,9.50
2022-12-11T03:13:19.888Z,9.75
2022-12-11T03:15:46.973Z,9.75
2022-12-11T03:18:13.560Z,9.52
2022-12-11T03:20:40.229Z,9.75
2022-12-11T03:23:06.884Z,11.07
2022-12-11T03:25:33.605Z,14.30
2022-12-11T03:28:00.254Z,12.63
2022-12-11T03:30:26.979Z,9.40
2022-12-11T03:32:53.684Z,9.07
2022-12-11T03:35:20.929Z,9.02
2022-12-11T03:37:47.562Z,12.85
2022-12-11T03:40:14.256Z,12.98
2022-12-11T03:42:40.892Z,10.07
2022-12-11T03:45:08.665Z,11.13
2022-12-11T03:47:35.500Z,9.52
2022-12-11T03:50:02.187Z,9.93
2022-12-11T03:52:28.841Z,7.78
2022-12-11T03:54:55.529Z,11.70
2022-12-11T03:57:22.137Z,10.05
2022-12-11T03:59:48.874Z,12.02
2022-12-11T04:02:15.554Z,10.15
2022-12-11T04:04:42.222Z,10.45
2022-12-11T04:07:08.855Z,10.60
2022-12-11T04:09:35.465Z,11.27
2022-12-11T04:12:02.082Z,14.73
2022-12-11T04:14:47.702Z,12.20
2022-12-11T04:17:34.279Z,9.85
2022-12-11T04:20:19.523Z,10.80
2022-12-11T04:23:04.898Z,10.90
2022-12-11T04:25:31.555Z,8.55
2022-12-11T04:27:58.193Z,9.60
2022-12-11T04:30:29.338Z,9.18
2022-12-11T04:32:59.060Z,10.05
2022-12-11T04:35:25.675Z,10.77
2022-12-11T04:37:52.349Z,10.30
2022-12-11T04:40:19.039Z,9.05
2022-12-11T04:42:45.708Z,7.18
2022-12-11T04:45:12.652Z,6.97
2022-12-11T04:47:39.565Z,10.65
2022-12-11T04:50:06.167Z,12.18
2022-12-11T04:52:32.830Z,8.50
2022-12-11T04:54:59.504Z,7.85
2022-12-11T04:57:26.150Z,10.50
2022-12-11T04:59:52.777Z,6.25
2022-12-11T05:02:19.408Z,9.13
2022-12-11T05:04:46.083Z,6.50
2022-12-11T05:07:12.776Z,7.88
2022-12-11T05:09:39.413Z,10.25
2022-12-11T05:12:06.066Z,9.57
2022-12-11T05:14:32.795Z,10.45
2022-12-11T05:16:59.534Z,8.57
2022-12-11T05:19:26.188Z,7.55
2022-12-11T05:21:52.840Z,9.00
2022-12-11T05:24:19.492Z,11.27
2022-12-11T05:26:46.125Z,9.55
2022-12-11T05:29:12.844Z,7.45
2022-12-11T05:31:39.566Z,9.05
2022-12-11T05:34:06.238Z,10.00
2022-12-11T05:36:32.886Z,9.35
2022-12-11T05:38:59.522Z,9.02
2022-12-11T05:41:26.233Z,10.25
2022-12-11T05:43:52.897Z,10.27
2022-12-11T05:46:19.580Z,7.53
2022-12-11T05:48:46.337Z,9.57
2022-12-11T05:51:13.034Z,7.30
2022-12-11T05:53:39.735Z,7.50
2022-12-11T05:56:06.423Z,8.43
2022-12-11T05:58:33.086Z,10.63
2022-12-11T06:00:59.749Z,9.00
2022-12-11T06:03:26.421Z,6.10
2022-12-11T06:05:53.104Z,6.47
2022-12-11T06:08:19.797Z,8.43
2022-12-11T06:10:46.925Z,7.22
2022-12-11T06:13:13.599Z,8.00
2022-12-11T06:15:40.327Z,9.73
2022-12-11T06:18:07.011Z,7.63
2022-12-11T06:20:33.651Z,7.63
2022-12-11T06:23:00.302Z,6.70
2022-12-11T06:25:27.028Z,6.85
2022-12-11T06:27:53.658Z,7.32
2022-12-11T06:30:20.407Z,8.52
2022-12-11T06:32:47.138Z,6.82
2022-12-11T06:35:13.914Z,7.20
2022-12-11T06:37:40.734Z,9.65
2022-12-11T06:40:07.369Z,8.82
2022-12-11T06:42:34.052Z,9.05
2022-12-11T06:45:00.653Z,8.43
2022-12-11T06:47:27.443Z,8.02
2022-12-11T06:49:54.215Z,7.03
2022-12-11T06:52:20.848Z,7.70
2022-12-11T06:54:47.530Z,6.75
2022-12-11T06:57:14.218Z,8.68
2022-12-11T06:59:40.877Z,5.95
2022-12-11T07:02:07.625Z,7.78
2022-12-11T07:04:34.882Z,10.40
2022-12-11T07:07:01.512Z,9.57
2022-12-11T07:09:28.179Z,8.30
2022-12-11T07:11:54.868Z,6.43
2022-12-11T07:14:21.521Z,8.40
2022-12-11T07:16:48.189Z,7.05
2022-12-11T07:19:14.885Z,7.88
2022-12-11T07:21:41.516Z,8.45
2022-12-11T07:24:11.267Z,9.68
2022-12-11T07:26:37.937Z,8.48
2022-12-11T07:29:04.552Z,7.80
2022-12-11T07:31:31.240Z,6.43
2022-12-11T07:33:57.917Z,7.43
2022-12-11T07:36:24.543Z,9.98
2022-12-11T07:38:51.262Z,8.93
2022-12-11T07:41:17.897Z,7.68
2022-12-11T07:43:45.515Z,6.88
2022-12-11T07:46:12.266Z,10.00
2022-12-11T07:48:39.050Z,12.38
2022-12-11T07:51:05.679Z,9.88
2022-12-11T07:53:32.321Z,8.43
2022-12-11T07:55:58.957Z,8.27
2022-12-11T07:58:25.588Z,9.55
2022-12-11T08:00:52.280Z,13.35
2022-12-11T08:03:18.985Z,10.13
2022-12-11T08:05:46.129Z,16.65
2022-12-11T08:08:12.840Z,17.20
2022-12-11T08:10:39.531Z,9.65
2022-12-11T08:13:06.271Z,12.50
2022-12-11T08:15:33.889Z,12.63
2022-12-11T08:18:00.554Z,17.88
2022-12-11T08:20:27.284Z,14.45
2022-12-11T08:22:58.939Z,20.08
2022-12-11T08:25:25.914Z,12.98
2022-12-11T08:27:52.653Z,11.68
2022-12-11T08:30:19.290Z,12.10
2022-12-11T08:32:45.885Z,10.32
2022-12-11T08:35:12.813Z,15.60
2022-12-11T08:37:40.285Z,18.25
2022-12-11T08:40:07.018Z,16.55
2022-12-11T08:42:33.768Z,18.02
2022-12-11T08:45:00.465Z,15.02
2022-12-11T08:47:27.636Z,16.98
2022-12-11T08:49:54.381Z,19.83
2022-12-11T08:52:21.094Z,21.88
2022-12-11T08:54:48.635Z,16.05
2022-12-11T08:57:15.264Z,18.75
2022-12-11T08:59:42.016Z,16.10
2022-12-11T09:02:08.735Z,17.33
2022-12-11T09:04:35.494Z,14.38
2022-12-11T09:07:02.224Z,16.15
2022-12-11T09:09:28.917Z,14.40
2022-12-11T09:11:56.602Z,12.73
2022-12-11T09:14:23.346Z,11.23
2022-12-11T09:16:50.000Z,11.73
2022-12-11T09:19:17.880Z,17.20
2022-12-11T09:21:44.587Z,13.77
2022-12-11T09:24:11.308Z,13.68
2022-12-11T09:26:38.118Z,13.25
2022-12-11T09:29:04.871Z,12.20
2022-12-11T09:31:31.563Z,14.82
2022-12-11T09:33:58.264Z,10.48
2022-12-11T09:36:24.972Z,12.38
2022-12-11T09:38:51.656Z,14.50
2022-12-11T09:41:18.656Z,12.32
2022-12-11T09:43:45.399Z,15.25
2022-12-11T09:46:12.155Z,9.52
2022-12-11T09:48:38.833Z,11.02
2022-12-11T09:51:05.509Z,14.55
2022-12-11T09:53:34.294Z,12.57
2022-12-11T09:56:01.275Z,11.65
2022-12-11T09:58:27.960Z,12.40
2022-12-11T10:00:54.632Z,12.20
2022-12-11T10:03:21.332Z,11.13
2022-12-11T10:05:48.028Z,14.35
2022-12-11T10:08:14.792Z,12.55
2022-12-11T10:10:41.556Z,10.40
2022-12-11T10:13:08.319Z,15.52
2022-12-11T10:15:35.484Z,10.13
2022-12-11T10:18:05.154Z,11.23
2022-12-11T10:20:35.145Z,8.85
2022-12-11T10:23:01.859Z,16.58
2022-12-11T10:25:29.026Z,11.98
2022-12-11T10:27:55.917Z,10.63
2022-12-11T10:30:22.618Z,11.80
2022-12-11T10:32:49.353Z,10.20
2022-12-11T10:35:16.036Z,10.63
2022-12-11T10:37:42.864Z,15.40
2022-12-11T10:40:09.579Z,14.70
2022-12-11T10:42:38.935Z,8.73
2022-12-11T10:45:09.998Z,11.63
2022-12-11T10:47:37.013Z,11.05
2022-12-11T10:50:03.623Z,12.07
2022-12-11T10:52:30.366Z,19.73
2022-12-11T10:54:56.994Z,17.63
2022-12-11T10:57:23.747Z,9.35
2022-12-11T10:59:50.462Z,13.70
2022-12-11T11:02:17.173Z,16.95
2022-12-11T11:04:44.948Z,18.70
2022-12-11T11:07:12.749Z,10.75
2022-12-11T11:09:40.167Z,11.95
2022-12-11T11:12:08.174Z,11.60
2022-12-11T11:14:35.034Z,11.07
2022-12-11T11:17:01.716Z,13.40
2022-12-11T11:19:28.409Z,15.77
2022-12-11T11:21:55.097Z,16.77
2022-12-11T11:24:22.240Z,13.80
2022-12-11T11:27:12.236Z,19.20
2022-12-11T11:29:38.418Z,15.50
2022-12-11T11:32:05.452Z,15.30
2022-12-11T11:34:32.506Z,21.88
2022-12-11T11:37:01.404Z,14.27
2022-12-11T11:39:28.532Z,16.13
2022-12-11T11:41:55.849Z,18.70
2022-12-11T11:44:25.518Z,19.85
2022-12-11T11:46:52.752Z,19.15
2022-12-11T11:49:19.802Z,19.98
2022-12-11T11:51:46.958Z,17.27
2022-12-11T11:54:14.005Z,16.73
2022-12-11T11:56:41.094Z,15.00
2022-12-11T11:59:09.012Z,16.42
2022-12-11T12:01:36.778Z,20.83
2022-12-11T12:04:06.196Z,19.25
2022-12-11T12:06:33.418Z,19.10
2022-12-11T12:09:00.647Z,22.05
2022-12-11T12:11:27.878Z,14.82
2022-12-11T12:13:55.079Z,13.02
2022-12-11T12:16:51.504Z,14.75
2022-12-11T12:19:09.715Z,18.88
2022-12-11T12:21:36.801Z,20.05
2022-12-11T12:24:03.839Z,18.35
2022-12-11T12:26:31.055Z,15.35
2022-12-11T12:28:58.334Z,17.17
2022-12-11T12:31:25.966Z,19.30
2022-12-11T12:33:53.329Z,23.98
2022-12-11T12:36:20.612Z,21.60
2022-12-11T12:38:47.635Z,17.98
2022-12-11T12:41:15.691Z,16.05
2022-12-11T12:43:42.560Z,17.83
2022-12-11T12:46:09.366Z,19.20
2022-12-11T12:48:36.793Z,18.45
2022-12-11T12:51:03.464Z,20.92
2022-12-11T12:53:30.257Z,19.52
2022-12-11T12:55:56.907Z,23.70
2022-12-11T12:58:23.637Z,18.15
2022-12-11T13:00:50.537Z,22.65
2022-12-11T13:03:17.268Z,17.27
2022-12-11T13:05:43.978Z,20.20
2022-12-11T13:08:13.624Z,21.48
2022-12-11T13:10:40.501Z,21.05
2022-12-11T13:13:07.231Z,20.27
2022-12-11T13:15:33.933Z,23.50
2022-12-11T13:18:00.588Z,22.67
2022-12-11T13:20:27.230Z,15.15
2022-12-11T13:22:53.834Z,20.00
2022-12-11T13:25:21.059Z,18.10
2022-12-11T13:27:49.274Z,19.10
2022-12-11T13:30:16.007Z,17.25
2022-12-11T13:32:42.714Z,13.60
2022-12-11T13:35:09.645Z,16.75
2022-12-11T13:37:36.455Z,18.67
2022-12-11T13:40:03.603Z,16.60
2022-12-11T13:42:30.240Z,12.38
2022-12-11T13:44:57.025Z,11.25
2022-12-11T13:47:24.052Z,13.73
2022-12-11T13:49:50.768Z,14.02
2022-12-11T13:52:17.389Z,13.25
2022-12-11T13:54:44.185Z,12.48
2022-12-11T13:57:10.789Z,11.65
2022-12-11T13:59:37.528Z,15.93
2022-12-11T14:02:04.177Z,13.48
2022-12-11T14:04:31.530Z,11.00
2022-12-11T14:06:58.222Z,13.25
2022-12-11T14:09:24.976Z,11.80
2022-12-11T14:11:56.594Z,15.38
2022-12-11T14:14:23.693Z,15.00
2022-12-11T14:16:50.498Z,18.63
2022-12-11T14:19:17.206Z,15.13
2022-12-11T14:21:44.362Z,15.20
2022-12-11T14:24:11.063Z,11.45
2022-12-11T14:26:38.973Z,19.77
2022-12-11T14:29:05.623Z,21.13
2022-12-11T14:31:32.302Z,19.50
2022-12-11T14:33:58.994Z,16.15
2022-12-11T14:36:25.815Z,16.23
2022-12-11T14:38:52.508Z,12.85
2022-12-11T14:41:19.139Z,18.80
2022-12-11T14:43:45.836Z,18.95
2022-12-11T14:46:12.610Z,13.88
2022-12-11T14:48:39.364Z,19.75
2022-12-11T14:51:06.032Z,16.90
2022-12-11T14:53:32.693Z,11.52
2022-12-11T14:55:59.348Z,18.10
2022-12-11T14:58:29.107Z,16.80
2022-12-11T15:00:55.762Z,22.40
2022-12-11T15:03:22.594Z,17.50
2022-12-11T15:05:49.233Z,20.38
2022-12-11T15:08:16.025Z,17.65
2022-12-11T15:10:42.699Z,21.83
2022-12-11T15:13:09.370Z,21.42
2022-12-11T15:15:35.994Z,17.60
2022-12-11T15:18:03.168Z,21.02
2022-12-11T15:20:29.839Z,14.93
2022-12-11T15:22:56.543Z,18.52
2022-12-11T15:25:23.238Z,25.48
2022-12-11T15:27:49.872Z,20.55
2022-12-11T15:30:18.032Z,18.50
2022-12-11T15:32:44.718Z,15.77
2022-12-11T15:35:11.352Z,13.60
2022-12-11T15:37:40.151Z,21.30
2022-12-11T15:40:06.770Z,18.38
2022-12-11T15:42:33.445Z,21.95
2022-12-11T15:45:00.042Z,20.23
2022-12-11T15:47:26.740Z,20.40
2022-12-11T15:49:53.330Z,24.73
2022-12-11T15:52:19.947Z,25.90
2022-12-11T15:54:46.596Z,28.00
2022-12-11T15:57:13.213Z,23.02
2022-12-11T15:59:39.948Z,20.08
2022-12-11T16:02:06.638Z,23.02
2022-12-11T16:04:33.309Z,14.90
2022-12-11T16:06:59.892Z,18.60
2022-12-11T16:09:26.492Z,19.85
2022-12-11T16:11:53.159Z,13.55
2022-12-11T16:14:19.909Z,18.10
2022-12-11T16:16:46.492Z,20.42
2022-12-11T16:19:13.088Z,21.23
2022-12-11T16:21:39.686Z,21.05
2022-12-11T16:24:06.272Z,20.50
2022-12-11T16:26:33.765Z,26.35
2022-12-11T16:29:00.610Z,24.75
2022-12-11T16:31:27.364Z,16.27
2022-12-11T16:33:54.032Z,18.13
2022-12-11T16:36:20.776Z,29.38
2022-12-11T16:38:52.912Z,19.48
2022-12-11T16:41:20.297Z,19.27
2022-12-11T16:43:47.568Z,21.30
2022-12-11T16:46:14.267Z,21.50
2022-12-11T16:48:40.954Z,23.52
2022-12-11T16:51:07.608Z,19.50
2022-12-11T16:53:34.225Z,21.27
2022-12-11T16:56:00.895Z,12.75
2022-12-11T16:58:27.480Z,26.50
2022-12-11T17:01:02.113Z,23.50
2022-12-11T17:03:30.049Z,25.00
2022-12-11T17:05:56.802Z,20.75
2022-12-11T17:08:23.530Z,27.00
2022-12-11T17:10:50.203Z,21.00
2022-12-11T17:13:16.787Z,16.38
2022-12-11T17:15:43.503Z,27.83
2022-12-11T17:18:10.150Z,18.95
2022-12-11T17:20:36.828Z,19.63
2022-12-11T17:23:03.574Z,22.02
2022-12-11T17:25:30.189Z,23.45
2022-12-11T17:27:56.797Z,26.55
2022-12-11T17:30:23.449Z,25.00
2022-12-11T17:32:50.031Z,20.15
2022-12-11T17:35:17.264Z,20.77
2022-12-11T17:37:43.888Z,22.13
2022-12-11T17:40:10.582Z,19.92
2022-12-11T17:42:37.198Z,29.77
2022-12-11T17:45:03.818Z,25.85
2022-12-11T17:47:30.448Z,23.50
2022-12-11T17:49:57.107Z,17.67
2022-12-11T17:52:23.724Z,24.48
2022-12-11T17:54:50.337Z,18.42
2022-12-11T17:57:16.985Z,25.65
2022-12-11T17:59:43.645Z,24.38
2022-12-11T18:02:10.635Z,22.20
2022-12-11T18:04:37.384Z,19.35
2022-12-11T18:07:04.057Z,19.80
2022-12-11T18:09:30.721Z,16.42
2022-12-11T18:11:57.350Z,19.58
2022-12-11T18:14:24.006Z,26.85
2022-12-11T18:16:52.284Z,25.45
2022-12-11T18:19:19.885Z,15.73
2022-12-11T18:21:47.183Z,22.05
2022-12-11T18:24:14.204Z,28.55
2022-12-11T18:26:42.951Z,22.38
2022-12-11T18:29:09.706Z,24.50
2022-12-11T18:31:42.024Z,22.88
2022-12-11T18:34:09.200Z,16.77
2022-12-11T18:36:36.291Z,24.05
2022-12-11T18:39:03.432Z,19.40
2022-12-11T18:41:30.338Z,20.80
2022-12-11T18:43:57.012Z,24.05
2022-12-11T18:46:23.655Z,25.95
2022-12-11T18:48:50.775Z,26.92
2022-12-11T18:51:17.640Z,19.70
2022-12-11T18:53:47.007Z,27.98
2022-12-11T18:56:13.773Z,26.17
2022-12-11T18:58:40.490Z,24.20
2022-12-11T19:01:07.335Z,23.05
2022-12-11T19:03:34.055Z,20.77
2022-12-11T19:06:00.745Z,20.02
2022-12-11T19:08:27.566Z,19.52
2022-12-11T19:10:54.348Z,19.83
2022-12-11T19:13:21.048Z,17.90
2022-12-11T19:15:47.730Z,17.52
2022-12-11T19:18:14.956Z,18.95
2022-12-11T19:20:57.656Z,19.98
2022-12-11T19:23:24.618Z,20.05
2022-12-11T19:25:51.484Z,24.42
2022-12-11T19:28:18.190Z,19.88
2022-12-11T19:30:45.033Z,17.95
2022-12-11T19:33:12.049Z,20.83
2022-12-11T19:35:38.630Z,18.83
2022-12-11T19:38:05.514Z,17.45
2022-12-11T19:40:32.562Z,17.23
2022-12-11T19:42:59.163Z,19.45
2022-12-11T19:45:25.893Z,16.73
2022-12-11T19:47:52.583Z,17.65
2022-12-11T19:50:19.261Z,17.40
2022-12-11T19:52:46.545Z,21.70
2022-12-11T19:55:15.144Z,23.42
2022-12-11T19:57:42.057Z,21.27
2022-12-11T20:00:08.702Z,20.60
2022-12-11T20:02:35.564Z,21.90
2022-12-11T20:05:02.197Z,20.25
2022-12-11T20:07:30.747Z,17.23
2022-12-11T20:09:57.594Z,15.38
2022-12-11T20:12:24.529Z,14.25
2022-12-11T20:14:51.114Z,19.98
2022-12-11T20:17:17.816Z,14.40
2022-12-11T20:19:44.549Z,16.83
2022-12-11T20:22:11.340Z,18.00
2022-12-11T20:24:37.957Z,19.42
2022-12-11T20:27:04.779Z,15.65
2022-12-11T20:29:31.389Z,19.65
2022-12-11T20:31:59.764Z,20.90
2022-12-11T20:34:26.629Z,18.20
2022-12-11T20:36:53.297Z,18.38
2022-12-11T20:39:20.139Z,20.08
2022-12-11T20:41:46.911Z,17.02
2022-12-11T20:44:13.810Z,18.38
2022-12-11T20:46:40.994Z,16.83
2022-12-11T20:49:12.822Z,16.70
2022-12-11T20:51:39.749Z,16.08
2022-12-11T20:54:06.477Z,16.23
2022-12-11T20:56:33.072Z,18.30
2022-12-11T20:58:59.712Z,14.52
2022-12-11T21:01:26.369Z,15.98
2022-12-11T21:03:53.618Z,13.43
2022-12-11T21:06:20.270Z,16.48
2022-12-11T21:08:46.937Z,11.57
2022-12-11T21:11:13.574Z,14.70
2022-12-11T21:13:40.212Z,14.15
2022-12-11T21:16:06.898Z,15.52
2022-12-11T21:18:33.592Z,11.73
2022-12-11T21:21:00.246Z,17.42
2022-12-11T21:23:26.899Z,14.70
2022-12-11T21:25:53.545Z,16.80
2022-12-11T21:28:20.195Z,14.02
2022-12-11T21:30:46.901Z,14.73
2022-12-11T21:33:13.580Z,15.23
2022-12-11T21:35:40.282Z,16.25
2022-12-11T21:38:06.974Z,15.55
2022-12-11T21:40:33.594Z,15.23
2022-12-11T21:43:00.285Z,16.55
2022-12-11T21:48:13.697Z,15.73
2022-12-11T21:50:40.495Z,16.05
2022-12-11T21:53:07.286Z,14.23
2022-12-11T21:55:34.060Z,15.40
2022-12-11T21:58:00.954Z,14.15
2022-12-11T22:00:30.772Z,15.35
2022-12-11T22:02:57.548Z,14.23
2022-12-11T22:05:24.247Z,13.02
2022-12-11T22:07:51.028Z,10.90
2022-12-11T22:10:17.743Z,14.77
2022-12-11T22:12:44.574Z,18.20
2022-12-11T22:15:11.624Z,12.93
2022-12-11T22:17:38.558Z,18.33
2022-12-11T22:20:05.319Z,16.70
2022-12-11T22:22:32.026Z,14.15
2022-12-11T22:24:58.699Z,13.23
2022-12-11T22:27:25.402Z,16.90
2022-12-11T22:29:52.113Z,13.73
2022-12-11T22:32:18.996Z,15.63
2022-12-11T22:34:45.952Z,16.67
2022-12-11T22:37:12.706Z,15.65
2022-12-11T22:39:39.378Z,12.85
2022-12-11T22:42:06.277Z,13.25
2022-12-11T22:44:32.927Z,11.43
2022-12-11T22:47:10.825Z,11.10
2022-12-11T22:49:37.695Z,12.60
2022-12-11T22:52:04.408Z,12.23
2022-12-11T22:54:31.409Z,12.82
2022-12-11T22:56:58.080Z,11.85
2022-12-11T22:59:24.717Z,13.13
2022-12-11T23:01:51.438Z,8.85
2022-12-11T23:04:18.481Z,9.80
2022-12-11T23:06:45.349Z,10.88
2022-12-11T23:09:12.189Z,13.52
2022-12-11T23:11:39.212Z,9.75
2022-12-11T23:14:05.946Z,11.55
2022-12-11T23:16:32.884Z,8.85
2022-12-11T23:18:59.629Z,7.97
2022-12-11T23:21:26.336Z,10.57
2022-12-11T23:23:52.965Z,7.10
2022-12-11T23:26:19.668Z,8.02
2022-12-11T23:28:46.395Z,8.10
2022-12-11T23:31:13.100Z,9.45
2022-12-11T23:33:39.761Z,7.07
2022-12-11T23:36:06.564Z,7.10
2022-12-11T23:38:33.381Z,7.65
2022-12-11T23:41:00.257Z,8.48
2022-12-11T23:43:26.898Z,7.15
2022-12-11T23:45:53.568Z,7.43
2022-12-11T23:48:20.486Z,5.43
2022-12-11T23:50:47.116Z,7.05
2022-12-11T23:53:22.545Z,5.65
2022-12-11T23:55:49.199Z,7.80
2022-12-11T23:58:15.844Z,6.80
